M/V Crosby Hustler — WDA3941 — position and weather

sailwx.info

Track history (hours):
 
Tides and Currents Weather Stations Pressure Air Temp Water Temp Dewpoint Dewpoint Depression Visibility Wind Speed Wind Dir Waves Ship Positions

M/V Crosby Hustler

More information available from US FCC via Universal Licensing System and Coast Guard Vessel Documentation Center.

Last reported at 2014-Jul-29 21:28 UTC. Time now 2014-Jul-29 22:59 UTC.
Position N 29°24' W 094°46'.

Length 18 m; draft 9 m.

Type: Tug. MMSI: 366804030.

Date/timePositionNaut miles runAvg speedWind from/ knotsBaromVisibWave heightAir tempDewpointWater temp
2014-Jul-29 21:28N 29°24' W 094°46'6 4.4
2014-Jul-29 20:03N 29°28' W 094°51'3 6.3
2014-Jul-29 19:33N 29°30' W 094°53'6 6.2
2014-Jul-29 18:33N 29°36' W 094°57'6 6.5
2014-Jul-29 17:33N 29°42' W 094°60'6 5.6
2014-Jul-29 16:33N 29°45' W 095°04'2 2.0
2014-Jul-29 15:32N 29°48' W 095°04'0 0.0
2014-Jul-29 14:32N 29°48' W 095°04'0 0.0
2014-Jul-29 13:32N 29°48' W 095°04'0 0.0
2014-Jul-29 12:32N 29°48' W 095°04'0 0.0
2014-Jul-29 11:26N 29°48' W 095°04'0 0.0
2014-Jul-29 10:29N 29°48' W 095°04'0 0.0
2014-Jul-29 09:29N 29°48' W 095°04'0 0.0
2014-Jul-29 08:32N 29°48' W 095°04'0 0.0
2014-Jul-29 07:29N 29°48' W 095°04'0 0.0
2014-Jul-29 06:32N 29°48' W 095°04'0 0.0
2014-Jul-29 05:29N 29°48' W 095°04'0 0.0
2014-Jul-29 04:32N 29°48' W 095°04'0 0.0
2014-Jul-29 03:32N 29°48' W 095°04'0 0.0
2014-Jul-29 01:32N 29°48' W 095°04'0 0.0
2014-Jul-29 00:32N 29°48' W 095°04'0 0.0
2014-Jul-28 23:32N 29°48' W 095°04'0 0.0
2014-Jul-28 22:29N 29°48' W 095°04'0 0.0
2014-Jul-28 21:29N 29°48' W 095°04'0 0.0
2014-Jul-28 20:32N 29°48' W 095°04'0 0.0
2014-Jul-28 19:32N 29°48' W 095°04'0 0.0
2014-Jul-28 18:32N 29°48' W 095°04'0 0.0
2014-Jul-28 17:32N 29°48' W 095°04'0 0.0
2014-Jul-28 16:32N 29°48' W 095°04'0 0.0
2014-Jul-28 15:32N 29°48' W 095°04'0 0.0
2014-Jul-28 14:29N 29°48' W 095°04'0 0.0
2014-Jul-28 13:31N 29°48' W 095°04'0 0.0
2014-Jul-28 12:31N 29°48' W 095°04'0 0.0
2014-Jul-28 11:31N 29°48' W 095°04'0 0.0
2014-Jul-28 10:31N 29°48' W 095°04'0 0.1
2014-Jul-28 09:31N 29°47' W 095°04'0 0.0
2014-Jul-28 08:30N 29°48' W 095°04'0 0.0
2014-Jul-28 07:33N 29°48' W 095°04'0 0.0
2014-Jul-28 06:33N 29°48' W 095°04'0 0.0
2014-Jul-28 05:33N 29°48' W 095°04'0 0.0
2014-Jul-28 04:33N 29°48' W 095°04'0 0.0
2014-Jul-28 03:24N 29°48' W 095°04'2 2.7
2014-Jul-28 02:32N 29°46' W 095°05'6 6.1
2014-Jul-28 01:33N 29°44' W 095°12'3 2.4
2014-Jul-28 00:29N 29°43' W 095°15'0 0.0
2014-Jul-27 23:32N 29°43' W 095°15'0 0.0
2014-Jul-27 22:32N 29°43' W 095°15'0 0.0
2014-Jul-27 21:32N 29°43' W 095°15'0 0.0
2014-Jul-27 20:32N 29°43' W 095°15'0 0.0
2014-Jul-27 19:32N 29°43' W 095°15'0 0.0
2014-Jul-27 18:32N 29°43' W 095°15'0 0.0
2014-Jul-27 17:32N 29°43' W 095°15'0 0.0
2014-Jul-27 16:32N 29°43' W 095°15'0 0.0
2014-Jul-27 15:32N 29°43' W 095°15'0 0.0
2014-Jul-27 14:32N 29°43' W 095°15'0 0.0
2014-Jul-27 13:32N 29°43' W 095°15'0 0.0
2014-Jul-27 12:32N 29°43' W 095°15'0 0.0
2014-Jul-27 11:32N 29°43' W 095°15'0 0.0
2014-Jul-27 10:32N 29°43' W 095°15'0 0.0
2014-Jul-27 09:32N 29°43' W 095°15'0 0.0
2014-Jul-27 08:32N 29°43' W 095°15'0 0.0
2014-Jul-27 07:32N 29°43' W 095°15'0 0.0
2014-Jul-27 06:32N 29°43' W 095°15'0 0.0
2014-Jul-27 05:32N 29°43' W 095°15'0 0.0
2014-Jul-27 04:32N 29°43' W 095°15'0 0.0
2014-Jul-27 03:32N 29°43' W 095°15'0 0.0
2014-Jul-27 02:32N 29°43' W 095°15'0 0.0
2014-Jul-27 01:32N 29°43' W 095°15'0 0.0
2014-Jul-27 00:32N 29°43' W 095°15'2 2.1
2014-Jul-26 23:33N 29°44' W 095°12'5 5.0
2014-Jul-26 22:33N 29°44' W 095°07'2 2.2
2014-Jul-26 21:33N 29°47' W 095°06'0 0.2
2014-Jul-26 20:31N 29°47' W 095°06'0 0.0
2014-Jul-26 19:31N 29°47' W 095°06'0 0.0
2014-Jul-26 18:28N 29°47' W 095°06'0 0.0
2014-Jul-26 17:28N 29°47' W 095°06'0 0.0
2014-Jul-26 16:31N 29°47' W 095°06'0 0.0
2014-Jul-26 15:31N 29°47' W 095°06'0 0.0
2014-Jul-26 14:31N 29°47' W 095°06'0 0.0
2014-Jul-26 13:31N 29°47' W 095°06'0 0.0
2014-Jul-26 12:31N 29°47' W 095°06'0 0.0
2014-Jul-26 11:28N 29°47' W 095°06'0 0.0
2014-Jul-26 10:31N 29°47' W 095°06'0 0.0
2014-Jul-26 09:31N 29°47' W 095°06'0 0.0
2014-Jul-26 08:31N 29°47' W 095°06'0 0.0
2014-Jul-26 07:31N 29°47' W 095°06'1 1.0
2014-Jul-26 06:33N 29°46' W 095°05'2 2.1
2014-Jul-26 05:31N 29°48' W 095°04'0 0.0
2014-Jul-26 04:28N 29°48' W 095°04'0 0.0
2014-Jul-26 03:28N 29°48' W 095°04'0 0.0
2014-Jul-26 02:31N 29°48' W 095°04'0 0.0
2014-Jul-26 01:31N 29°48' W 095°04'0 0.0
2014-Jul-26 00:31N 29°48' W 095°04'0 0.0
2014-Jul-25 23:31N 29°48' W 095°04'0 0.0
2014-Jul-25 22:31N 29°48' W 095°04'0 0.0
2014-Jul-25 21:31N 29°48' W 095°04'0 0.0
2014-Jul-25 20:22N 29°48' W 095°04'0 0.0
2014-Jul-25 19:31N 29°48' W 095°04'0 0.1
2014-Jul-25 18:33N 29°47' W 095°04'1 1.2
2014-Jul-25 17:34N 29°47' W 095°05'1 0.6
2014-Jul-25 15:30N 29°46' W 095°06'0 0.0
2014-Jul-25 14:33N 29°46' W 095°06'2 2.3
2014-Jul-25 13:31N 29°48' W 095°04'0 0.0
2014-Jul-25 12:31N 29°48' W 095°04'0 0.0
2014-Jul-25 11:31N 29°48' W 095°04'0 0.0
2014-Jul-25 10:31N 29°48' W 095°04'0 0.0
2014-Jul-25 09:31N 29°48' W 095°04'0 0.0
2014-Jul-25 08:31N 29°48' W 095°04'0 0.0
2014-Jul-25 07:31N 29°48' W 095°04'0 0.0
2014-Jul-25 06:31N 29°48' W 095°04'0 0.0
2014-Jul-25 05:28N 29°48' W 095°04'0 0.0
2014-Jul-25 04:31N 29°48' W 095°04'0 0.0
2014-Jul-25 03:31N 29°48' W 095°04'0 0.0
2014-Jul-25 02:22N 29°48' W 095°04'0 0.0
2014-Jul-25 01:28N 29°48' W 095°04'0 0.1
2014-Jul-25 00:31N 29°48' W 095°04'0 0.0
2014-Jul-24 23:31N 29°48' W 095°04'0 0.0
2014-Jul-24 22:31N 29°48' W 095°04'0 0.0
2014-Jul-24 21:31N 29°48' W 095°04'0 0.0
2014-Jul-24 20:31N 29°48' W 095°04'0 0.0
2014-Jul-24 19:31N 29°48' W 095°04'0 0.0
2014-Jul-24 16:30N 29°48' W 095°04'2 1.2
2014-Jul-24 14:30N 29°46' W 095°06'0 0.0
2014-Jul-24 13:18N 29°46' W 095°06'0 0.0
2014-Jul-24 12:30N 29°46' W 095°06'0 0.0
2014-Jul-24 11:30N 29°46' W 095°06'0 0.0
2014-Jul-24 10:33N 29°46' W 095°06'0 0.0
2014-Jul-24 09:06N 29°46' W 095°06'0 0.0
2014-Jul-24 08:33N 29°46' W 095°06'0 0.0
2014-Jul-24 07:33N 29°46' W 095°06'1 0.8
2014-Jul-24 06:33N 29°45' W 095°06'0 0.5
2014-Jul-24 05:33N 29°46' W 095°06'0 0.3
2014-Jul-24 04:28N 29°46' W 095°06'0 0.0
2014-Jul-24 03:31N 29°46' W 095°06'0 0.0
2014-Jul-24 02:34N 29°46' W 095°06'0 0.0
2014-Jul-24 01:33N 29°46' W 095°06'0 0.0
2014-Jul-24 00:34N 29°46' W 095°06'0 0.0
2014-Jul-23 23:34N 29°46' W 095°06'0 0.0
2014-Jul-23 22:33N 29°46' W 095°06'0 0.2
2014-Jul-23 21:31N 29°46' W 095°06'0 0.0
2014-Jul-23 20:31N 29°46' W 095°06'0 0.0
2014-Jul-23 19:31N 29°46' W 095°06'0 0.0
2014-Jul-23 18:31N 29°46' W 095°06'0 0.0
2014-Jul-23 17:31N 29°46' W 095°06'0 0.0
2014-Jul-23 16:28N 29°46' W 095°06'0 0.0
2014-Jul-23 15:31N 29°46' W 095°06'1 1.4
2014-Jul-23 14:33N 29°46' W 095°05'1 1.3
2014-Jul-23 13:33N 29°48' W 095°04'0 0.0
2014-Jul-23 12:33N 29°48' W 095°04'0 0.0
2014-Jul-23 11:33N 29°48' W 095°04'0 0.0
2014-Jul-23 10:30N 29°48' W 095°04'1 0.8
2014-Jul-23 09:33N 29°47' W 095°04'5 4.9
2014-Jul-23 08:33N 29°44' W 095°09'5 4.8
2014-Jul-23 07:31N 29°43' W 095°15'0 0.0
2014-Jul-23 06:31N 29°43' W 095°15'0 0.0
2014-Jul-23 05:31N 29°43' W 095°15'0 0.0
2014-Jul-23 04:31N 29°43' W 095°15'0 0.0
2014-Jul-23 03:31N 29°43' W 095°15'0 0.0
2014-Jul-23 02:31N 29°43' W 095°15'0 0.0
2014-Jul-23 01:31N 29°43' W 095°15'0 0.0
2014-Jul-23 00:31N 29°43' W 095°15'0 0.0
2014-Jul-22 23:31N 29°43' W 095°15'0 0.0
2014-Jul-22 22:31N 29°43' W 095°15'0 0.0
2014-Jul-22 21:31N 29°43' W 095°15'0 0.0
2014-Jul-22 20:31N 29°43' W 095°15'0 0.0
2014-Jul-22 19:31N 29°43' W 095°15'0 0.0
2014-Jul-22 18:31N 29°43' W 095°15'0 0.0
2014-Jul-22 17:31N 29°43' W 095°15'0 0.0
2014-Jul-22 16:31N 29°43' W 095°15'0 0.0
2014-Jul-22 15:31N 29°43' W 095°15'0 0.0
2014-Jul-22 14:31N 29°43' W 095°15'0 0.0
2014-Jul-22 13:31N 29°43' W 095°15'0 0.0
2014-Jul-22 12:32N 29°43' W 095°15'0 0.0
2014-Jul-22 11:32N 29°43' W 095°15'0 0.0
2014-Jul-22 10:32N 29°43' W 095°15'0 0.0
2014-Jul-22 09:32N 29°43' W 095°15'0 0.0
2014-Jul-22 08:32N 29°43' W 095°15'0 0.0
2014-Jul-22 07:32N 29°43' W 095°15'0 0.0
2014-Jul-22 06:32N 29°43' W 095°15'0 0.0
2014-Jul-22 05:32N 29°43' W 095°15'0 0.0
2014-Jul-22 04:32N 29°43' W 095°15'0 0.0
2014-Jul-22 03:32N 29°43' W 095°15'0 0.0
2014-Jul-22 02:32N 29°43' W 095°15'2 1.9
2014-Jul-22 01:33N 29°44' W 095°13'4 4.2
2014-Jul-22 00:33N 29°44' W 095°08'3 2.5
2014-Jul-21 23:32N 29°46' W 095°06'1 0.5
2014-Jul-21 22:30N 29°47' W 095°06'0 0.0
2014-Jul-21 21:33N 29°47' W 095°06'0 0.0
2014-Jul-21 20:33N 29°47' W 095°06'0 0.0
2014-Jul-21 20:18N 29°47' W 095°06'0 0.0
2014-Jul-21 19:33N 29°47' W 095°06'0 0.0
2014-Jul-21 18:33N 29°47' W 095°06'0 0.0
2014-Jul-21 17:33N 29°47' W 095°06'0 0.0
2014-Jul-21 16:33N 29°47' W 095°06'0 0.0
2014-Jul-21 15:33N 29°47' W 095°06'0 0.0
2014-Jul-21 14:33N 29°47' W 095°06'0 0.0
2014-Jul-21 13:33N 29°47' W 095°06'0 0.0
2014-Jul-21 12:33N 29°47' W 095°06'0 0.0
2014-Jul-21 11:33N 29°47' W 095°06'0 0.0
2014-Jul-21 10:33N 29°47' W 095°06'0 0.0
2014-Jul-21 09:30N 29°47' W 095°06'0 0.0
2014-Jul-21 08:33N 29°47' W 095°06'0 0.0
2014-Jul-21 07:33N 29°47' W 095°06'0 0.0
2014-Jul-21 06:33N 29°47' W 095°06'0 0.0
2014-Jul-21 05:33N 29°47' W 095°06'0 0.0
2014-Jul-21 04:30N 29°47' W 095°06'0 0.0
2014-Jul-21 03:30N 29°47' W 095°06'0 0.0
2014-Jul-21 02:33N 29°47' W 095°06'0 0.0
2014-Jul-21 01:33N 29°47' W 095°06'0 0.0
2014-Jul-21 00:33N 29°47' W 095°06'0 0.0
2014-Jul-20 23:33N 29°47' W 095°06'0 0.0
2014-Jul-20 22:33N 29°47' W 095°06'0 0.0
2014-Jul-20 21:33N 29°47' W 095°06'0 0.0
2014-Jul-20 20:33N 29°47' W 095°06'0 0.0
2014-Jul-20 19:33N 29°47' W 095°06'0 0.0
2014-Jul-20 18:33N 29°47' W 095°06'0 0.0
2014-Jul-20 17:33N 29°47' W 095°06'0 0.0
2014-Jul-20 16:30N 29°47' W 095°06'0 0.0
2014-Jul-20 15:33N 29°47' W 095°06'0 0.0
2014-Jul-20 14:30N 29°47' W 095°06'0 0.0
2014-Jul-20 13:33N 29°47' W 095°06'0 0.0
2014-Jul-20 12:33N 29°47' W 095°06'0 0.0
2014-Jul-20 11:33N 29°47' W 095°06'0 0.0
2014-Jul-20 10:33N 29°47' W 095°06'0 0.0
2014-Jul-20 09:33N 29°47' W 095°06'0 0.0
2014-Jul-20 08:33N 29°47' W 095°06'0 0.0
2014-Jul-20 07:33N 29°47' W 095°06'0 0.0
2014-Jul-20 06:33N 29°47' W 095°06'0 0.0
2014-Jul-20 05:33N 29°47' W 095°06'0 0.0
2014-Jul-20 04:33N 29°47' W 095°06'0 0.0
2014-Jul-20 03:33N 29°47' W 095°06'0 0.0
2014-Jul-20 02:33N 29°47' W 095°06'0 0.0
2014-Jul-20 01:33N 29°47' W 095°06'0 0.0
2014-Jul-20 00:33N 29°47' W 095°06'0 0.0
2014-Jul-19 23:33N 29°47' W 095°06'0 0.0
2014-Jul-19 22:33N 29°47' W 095°06'0 0.0
2014-Jul-19 21:30N 29°47' W 095°06'  
Track history (hours):
 
Tides and Currents Weather Stations Pressure Air Temp Water Temp Dewpoint Dewpoint Depression Visibility Wind Speed Wind Dir Waves Ship Positions

M/V Crosby Hustler

More information available from US FCC via Universal Licensing System and Coast Guard Vessel Documentation Center.

Last reported at 2014-Jul-29 21:28 UTC. Time now 2014-Jul-29 22:59 UTC.
Position N 29°24' W 094°46'.

Length 18 m; draft 9 m.

Type: Tug. MMSI: 366804030.

Date/timePositionNaut miles runAvg speedWind from/ knotsBaromVisibWave heightAir tempDewpointWater temp
2014-Jul-29 21:28N 29°24' W 094°46'6 4.4
2014-Jul-29 20:03N 29°28' W 094°51'3 6.3
2014-Jul-29 19:33N 29°30' W 094°53'6 6.2
2014-Jul-29 18:33N 29°36' W 094°57'6 6.5
2014-Jul-29 17:33N 29°42' W 094°60'6 5.6
2014-Jul-29 16:33N 29°45' W 095°04'2 2.0
2014-Jul-29 15:32N 29°48' W 095°04'0 0.0
2014-Jul-29 14:32N 29°48' W 095°04'0 0.0
2014-Jul-29 13:32N 29°48' W 095°04'0 0.0
2014-Jul-29 12:32N 29°48' W 095°04'0 0.0
2014-Jul-29 11:26N 29°48' W 095°04'0 0.0
2014-Jul-29 10:29N 29°48' W 095°04'0 0.0
2014-Jul-29 09:29N 29°48' W 095°04'0 0.0
2014-Jul-29 08:32N 29°48' W 095°04'0 0.0
2014-Jul-29 07:29N 29°48' W 095°04'0 0.0
2014-Jul-29 06:32N 29°48' W 095°04'0 0.0
2014-Jul-29 05:29N 29°48' W 095°04'0 0.0
2014-Jul-29 04:32N 29°48' W 095°04'0 0.0
2014-Jul-29 03:32N 29°48' W 095°04'0 0.0
2014-Jul-29 01:32N 29°48' W 095°04'0 0.0
2014-Jul-29 00:32N 29°48' W 095°04'0 0.0
2014-Jul-28 23:32N 29°48' W 095°04'0 0.0
2014-Jul-28 22:29N 29°48' W 095°04'0 0.0
2014-Jul-28 21:29N 29°48' W 095°04'0 0.0
2014-Jul-28 20:32N 29°48' W 095°04'0 0.0
2014-Jul-28 19:32N 29°48' W 095°04'0 0.0
2014-Jul-28 18:32N 29°48' W 095°04'0 0.0
2014-Jul-28 17:32N 29°48' W 095°04'0 0.0
2014-Jul-28 16:32N 29°48' W 095°04'0 0.0
2014-Jul-28 15:32N 29°48' W 095°04'0 0.0
2014-Jul-28 14:29N 29°48' W 095°04'0 0.0
2014-Jul-28 13:31N 29°48' W 095°04'0 0.0
2014-Jul-28 12:31N 29°48' W 095°04'0 0.0
2014-Jul-28 11:31N 29°48' W 095°04'0 0.0
2014-Jul-28 10:31N 29°48' W 095°04'0 0.1
2014-Jul-28 09:31N 29°47' W 095°04'0 0.0
2014-Jul-28 08:30N 29°48' W 095°04'0 0.0
2014-Jul-28 07:33N 29°48' W 095°04'0 0.0
2014-Jul-28 06:33N 29°48' W 095°04'0 0.0
2014-Jul-28 05:33N 29°48' W 095°04'0 0.0
2014-Jul-28 04:33N 29°48' W 095°04'0 0.0
2014-Jul-28 03:24N 29°48' W 095°04'2 2.7
2014-Jul-28 02:32N 29°46' W 095°05'6 6.1
2014-Jul-28 01:33N 29°44' W 095°12'3 2.4
2014-Jul-28 00:29N 29°43' W 095°15'0 0.0
2014-Jul-27 23:32N 29°43' W 095°15'0 0.0
2014-Jul-27 22:32N 29°43' W 095°15'0 0.0
2014-Jul-27 21:32N 29°43' W 095°15'0 0.0
2014-Jul-27 20:32N 29°43' W 095°15'0 0.0
2014-Jul-27 19:32N 29°43' W 095°15'0 0.0
2014-Jul-27 18:32N 29°43' W 095°15'0 0.0
2014-Jul-27 17:32N 29°43' W 095°15'0 0.0
2014-Jul-27 16:32N 29°43' W 095°15'0 0.0
2014-Jul-27 15:32N 29°43' W 095°15'0 0.0
2014-Jul-27 14:32N 29°43' W 095°15'0 0.0
2014-Jul-27 13:32N 29°43' W 095°15'0 0.0
2014-Jul-27 12:32N 29°43' W 095°15'0 0.0
2014-Jul-27 11:32N 29°43' W 095°15'0 0.0
2014-Jul-27 10:32N 29°43' W 095°15'0 0.0
2014-Jul-27 09:32N 29°43' W 095°15'0 0.0
2014-Jul-27 08:32N 29°43' W 095°15'0 0.0
2014-Jul-27 07:32N 29°43' W 095°15'0 0.0
2014-Jul-27 06:32N 29°43' W 095°15'0 0.0
2014-Jul-27 05:32N 29°43' W 095°15'0 0.0
2014-Jul-27 04:32N 29°43' W 095°15'0 0.0
2014-Jul-27 03:32N 29°43' W 095°15'0 0.0
2014-Jul-27 02:32N 29°43' W 095°15'0 0.0
2014-Jul-27 01:32N 29°43' W 095°15'0 0.0
2014-Jul-27 00:32N 29°43' W 095°15'2 2.1
2014-Jul-26 23:33N 29°44' W 095°12'5 5.0
2014-Jul-26 22:33N 29°44' W 095°07'2 2.2
2014-Jul-26 21:33N 29°47' W 095°06'0 0.2
2014-Jul-26 20:31N 29°47' W 095°06'0 0.0
2014-Jul-26 19:31N 29°47' W 095°06'0 0.0
2014-Jul-26 18:28N 29°47' W 095°06'0 0.0
2014-Jul-26 17:28N 29°47' W 095°06'0 0.0
2014-Jul-26 16:31N 29°47' W 095°06'0 0.0
2014-Jul-26 15:31N 29°47' W 095°06'0 0.0
2014-Jul-26 14:31N 29°47' W 095°06'0 0.0
2014-Jul-26 13:31N 29°47' W 095°06'0 0.0
2014-Jul-26 12:31N 29°47' W 095°06'0 0.0
2014-Jul-26 11:28N 29°47' W 095°06'0 0.0
2014-Jul-26 10:31N 29°47' W 095°06'0 0.0
2014-Jul-26 09:31N 29°47' W 095°06'0 0.0
2014-Jul-26 08:31N 29°47' W 095°06'0 0.0
2014-Jul-26 07:31N 29°47' W 095°06'1 1.0
2014-Jul-26 06:33N 29°46' W 095°05'2 2.1
2014-Jul-26 05:31N 29°48' W 095°04'0 0.0
2014-Jul-26 04:28N 29°48' W 095°04'0 0.0
2014-Jul-26 03:28N 29°48' W 095°04'0 0.0
2014-Jul-26 02:31N 29°48' W 095°04'0 0.0
2014-Jul-26 01:31N 29°48' W 095°04'0 0.0
2014-Jul-26 00:31N 29°48' W 095°04'0 0.0
2014-Jul-25 23:31N 29°48' W 095°04'0 0.0
2014-Jul-25 22:31N 29°48' W 095°04'0 0.0
2014-Jul-25 21:31N 29°48' W 095°04'0 0.0
2014-Jul-25 20:22N 29°48' W 095°04'0 0.0
2014-Jul-25 19:31N 29°48' W 095°04'0 0.1
2014-Jul-25 18:33N 29°47' W 095°04'1 1.2
2014-Jul-25 17:34N 29°47' W 095°05'1 0.6
2014-Jul-25 15:30N 29°46' W 095°06'0 0.0
2014-Jul-25 14:33N 29°46' W 095°06'2 2.3
2014-Jul-25 13:31N 29°48' W 095°04'0 0.0
2014-Jul-25 12:31N 29°48' W 095°04'0 0.0
2014-Jul-25 11:31N 29°48' W 095°04'0 0.0
2014-Jul-25 10:31N 29°48' W 095°04'0 0.0
2014-Jul-25 09:31N 29°48' W 095°04'0 0.0
2014-Jul-25 08:31N 29°48' W 095°04'0 0.0
2014-Jul-25 07:31N 29°48' W 095°04'0 0.0
2014-Jul-25 06:31N 29°48' W 095°04'0 0.0
2014-Jul-25 05:28N 29°48' W 095°04'0 0.0
2014-Jul-25 04:31N 29°48' W 095°04'0 0.0
2014-Jul-25 03:31N 29°48' W 095°04'0 0.0
2014-Jul-25 02:22N 29°48' W 095°04'0 0.0
2014-Jul-25 01:28N 29°48' W 095°04'0 0.1
2014-Jul-25 00:31N 29°48' W 095°04'0 0.0
2014-Jul-24 23:31N 29°48' W 095°04'0 0.0
2014-Jul-24 22:31N 29°48' W 095°04'0 0.0
2014-Jul-24 21:31N 29°48' W 095°04'0 0.0
2014-Jul-24 20:31N 29°48' W 095°04'0 0.0
2014-Jul-24 19:31N 29°48' W 095°04'0 0.0
2014-Jul-24 16:30N 29°48' W 095°04'2 1.2
2014-Jul-24 14:30N 29°46' W 095°06'0 0.0
2014-Jul-24 13:18N 29°46' W 095°06'0 0.0
2014-Jul-24 12:30N 29°46' W 095°06'0 0.0
2014-Jul-24 11:30N 29°46' W 095°06'0 0.0
2014-Jul-24 10:33N 29°46' W 095°06'0 0.0
2014-Jul-24 09:06N 29°46' W 095°06'0 0.0
2014-Jul-24 08:33N 29°46' W 095°06'0 0.0
2014-Jul-24 07:33N 29°46' W 095°06'1 0.8
2014-Jul-24 06:33N 29°45' W 095°06'0 0.5
2014-Jul-24 05:33N 29°46' W 095°06'0 0.3
2014-Jul-24 04:28N 29°46' W 095°06'0 0.0
2014-Jul-24 03:31N 29°46' W 095°06'0 0.0
2014-Jul-24 02:34N 29°46' W 095°06'0 0.0
2014-Jul-24 01:33N 29°46' W 095°06'0 0.0
2014-Jul-24 00:34N 29°46' W 095°06'0 0.0
2014-Jul-23 23:34N 29°46' W 095°06'0 0.0
2014-Jul-23 22:33N 29°46' W 095°06'0 0.2
2014-Jul-23 21:31N 29°46' W 095°06'0 0.0
2014-Jul-23 20:31N 29°46' W 095°06'0 0.0
2014-Jul-23 19:31N 29°46' W 095°06'0 0.0
2014-Jul-23 18:31N 29°46' W 095°06'0 0.0
2014-Jul-23 17:31N 29°46' W 095°06'0 0.0
2014-Jul-23 16:28N 29°46' W 095°06'0 0.0
2014-Jul-23 15:31N 29°46' W 095°06'1 1.4
2014-Jul-23 14:33N 29°46' W 095°05'1 1.3
2014-Jul-23 13:33N 29°48' W 095°04'0 0.0
2014-Jul-23 12:33N 29°48' W 095°04'0 0.0
2014-Jul-23 11:33N 29°48' W 095°04'0 0.0
2014-Jul-23 10:30N 29°48' W 095°04'1 0.8
2014-Jul-23 09:33N 29°47' W 095°04'5 4.9
2014-Jul-23 08:33N 29°44' W 095°09'5 4.8
2014-Jul-23 07:31N 29°43' W 095°15'0 0.0
2014-Jul-23 06:31N 29°43' W 095°15'0 0.0
2014-Jul-23 05:31N 29°43' W 095°15'0 0.0
2014-Jul-23 04:31N 29°43' W 095°15'0 0.0
2014-Jul-23 03:31N 29°43' W 095°15'0 0.0
2014-Jul-23 02:31N 29°43' W 095°15'0 0.0
2014-Jul-23 01:31N 29°43' W 095°15'0 0.0
2014-Jul-23 00:31N 29°43' W 095°15'0 0.0
2014-Jul-22 23:31N 29°43' W 095°15'0 0.0
2014-Jul-22 22:31N 29°43' W 095°15'0 0.0
2014-Jul-22 21:31N 29°43' W 095°15'0 0.0
2014-Jul-22 20:31N 29°43' W 095°15'0 0.0
2014-Jul-22 19:31N 29°43' W 095°15'0 0.0
2014-Jul-22 18:31N 29°43' W 095°15'0 0.0
2014-Jul-22 17:31N 29°43' W 095°15'0 0.0
2014-Jul-22 16:31N 29°43' W 095°15'0 0.0
2014-Jul-22 15:31N 29°43' W 095°15'0 0.0
2014-Jul-22 14:31N 29°43' W 095°15'0 0.0
2014-Jul-22 13:31N 29°43' W 095°15'0 0.0
2014-Jul-22 12:32N 29°43' W 095°15'0 0.0
2014-Jul-22 11:32N 29°43' W 095°15'0 0.0
2014-Jul-22 10:32N 29°43' W 095°15'0 0.0
2014-Jul-22 09:32N 29°43' W 095°15'0 0.0
2014-Jul-22 08:32N 29°43' W 095°15'0 0.0
2014-Jul-22 07:32N 29°43' W 095°15'0 0.0
2014-Jul-22 06:32N 29°43' W 095°15'0 0.0
2014-Jul-22 05:32N 29°43' W 095°15'0 0.0
2014-Jul-22 04:32N 29°43' W 095°15'0 0.0
2014-Jul-22 03:32N 29°43' W 095°15'0 0.0
2014-Jul-22 02:32N 29°43' W 095°15'2 1.9
2014-Jul-22 01:33N 29°44' W 095°13'4 4.2
2014-Jul-22 00:33N 29°44' W 095°08'3 2.5
2014-Jul-21 23:32N 29°46' W 095°06'1 0.5
2014-Jul-21 22:30N 29°47' W 095°06'0 0.0
2014-Jul-21 21:33N 29°47' W 095°06'0 0.0
2014-Jul-21 20:33N 29°47' W 095°06'0 0.0
2014-Jul-21 20:18N 29°47' W 095°06'0 0.0
2014-Jul-21 19:33N 29°47' W 095°06'0 0.0
2014-Jul-21 18:33N 29°47' W 095°06'0 0.0
2014-Jul-21 17:33N 29°47' W 095°06'0 0.0
2014-Jul-21 16:33N 29°47' W 095°06'0 0.0
2014-Jul-21 15:33N 29°47' W 095°06'0 0.0
2014-Jul-21 14:33N 29°47' W 095°06'0 0.0
2014-Jul-21 13:33N 29°47' W 095°06'0 0.0
2014-Jul-21 12:33N 29°47' W 095°06'0 0.0
2014-Jul-21 11:33N 29°47' W 095°06'0 0.0
2014-Jul-21 10:33N 29°47' W 095°06'0 0.0
2014-Jul-21 09:30N 29°47' W 095°06'0 0.0
2014-Jul-21 08:33N 29°47' W 095°06'0 0.0
2014-Jul-21 07:33N 29°47' W 095°06'0 0.0
2014-Jul-21 06:33N 29°47' W 095°06'0 0.0
2014-Jul-21 05:33N 29°47' W 095°06'0 0.0
2014-Jul-21 04:30N 29°47' W 095°06'0 0.0
2014-Jul-21 03:30N 29°47' W 095°06'0 0.0
2014-Jul-21 02:33N 29°47' W 095°06'0 0.0
2014-Jul-21 01:33N 29°47' W 095°06'0 0.0
2014-Jul-21 00:33N 29°47' W 095°06'0 0.0
2014-Jul-20 23:33N 29°47' W 095°06'0 0.0
2014-Jul-20 22:33N 29°47' W 095°06'0 0.0
2014-Jul-20 21:33N 29°47' W 095°06'0 0.0
2014-Jul-20 20:33N 29°47' W 095°06'0 0.0
2014-Jul-20 19:33N 29°47' W 095°06'0 0.0
2014-Jul-20 18:33N 29°47' W 095°06'0 0.0
2014-Jul-20 17:33N 29°47' W 095°06'0 0.0
2014-Jul-20 16:30N 29°47' W 095°06'0 0.0
2014-Jul-20 15:33N 29°47' W 095°06'0 0.0
2014-Jul-20 14:30N 29°47' W 095°06'0 0.0
2014-Jul-20 13:33N 29°47' W 095°06'0 0.0
2014-Jul-20 12:33N 29°47' W 095°06'0 0.0
2014-Jul-20 11:33N 29°47' W 095°06'0 0.0
2014-Jul-20 10:33N 29°47' W 095°06'0 0.0
2014-Jul-20 09:33N 29°47' W 095°06'0 0.0
2014-Jul-20 08:33N 29°47' W 095°06'0 0.0
2014-Jul-20 07:33N 29°47' W 095°06'0 0.0
2014-Jul-20 06:33N 29°47' W 095°06'0 0.0
2014-Jul-20 05:33N 29°47' W 095°06'0 0.0
2014-Jul-20 04:33N 29°47' W 095°06'0 0.0
2014-Jul-20 03:33N 29°47' W 095°06'0 0.0
2014-Jul-20 02:33N 29°47' W 095°06'0 0.0
2014-Jul-20 01:33N 29°47' W 095°06'0 0.0
2014-Jul-20 00:33N 29°47' W 095°06'0 0.0
2014-Jul-19 23:33N 29°47' W 095°06'0 0.0
2014-Jul-19 22:33N 29°47' W 095°06'0 0.0
2014-Jul-19 21:30N 29°47' W 095°06'  

Dump ship's entire track history